Time;durP1;ratioP1;P1;durP2;ratioP2;P2;SDS_P1;SDS_P2;PMS_P1;PMS_P2;Temp;Humidity;BMP_temperature;BMP_pressure;BME280_temperature;BME280_humidity;BME280_pressure;Samples;Min_cycle;Max_cycle;Signal;HPM_P1;HPM_P2
2022/01/16 00:07:44;;;;;;;10.63;5.88;;;;;;;6.47;70.14;102438.63;4915922;29;20135;-93
2022/01/16 00:13:32;;;;;;;9.23;5.78;;;;;;;6.54;70.26;102451.47;4918957;29;20149;-92
2022/01/16 00:19:19;;;;;;;10.60;5.30;;;;;;;6.47;70.46;102443.81;4919012;29;20528;-94
2022/01/16 00:25:06;;;;;;;8.00;5.05;;;;;;;6.63;70.27;102482.59;4899426;29;20051;-90
2022/01/16 00:30:54;;;;;;;9.48;5.55;;;;;;;6.63;70.06;102500.75;4899656;29;20071;-92
2022/01/16 00:36:41;;;;;;;8.10;4.82;;;;;;;6.45;70.30;102508.53;4918234;29;20202;-92
2022/01/16 00:42:29;;;;;;;9.38;5.45;;;;;;;6.48;70.07;102568.56;4917919;29;20108;-89
2022/01/16 00:48:16;;;;;;;7.25;4.85;;;;;;;6.62;70.38;102649.47;4917961;29;20505;-92
2022/01/16 00:54:03;;;;;;;8.15;4.88;;;;;;;6.28;70.70;102325.28;4918488;29;20039;-93
2022/01/16 00:59:50;;;;;;;8.43;5.40;;;;;;;6.35;70.52;102307.72;4917655;29;20139;-94
2022/01/16 01:05:38;;;;;;;9.50;5.22;;;;;;;6.60;70.53;102397.53;4918157;29;20112;-93
2022/01/16 01:11:28;;;;;;;8.68;4.88;;;;;;;6.30;70.38;102379.91;4916466;29;20135;-93
2022/01/16 01:17:22;;;;;;;9.55;5.40;;;;;;;6.19;70.56;102403.91;4917238;29;20055;-93
2022/01/16 01:23:11;;;;;;;8.68;4.90;;;;;;;6.35;70.43;102466.91;4917152;29;20162;-93
2022/01/16 01:28:58;;;;;;;7.72;4.32;;;;;;;6.46;71.02;102440.31;4916936;29;20070;-91
2022/01/16 01:34:45;;;;;;;7.53;4.70;;;;;;;6.49;70.89;102463.06;4917100;29;20565;-92
2022/01/16 01:51:04;;;;;;;9.45;5.03;;;;;;;6.41;70.24;102464.00;4900013;29;20109;-90
2022/01/16 01:56:52;;;;;;;7.82;4.75;;;;;;;6.37;70.44;102477.44;4898453;29;20051;-93
2022/01/16 02:02:56;;;;;;;9.32;4.53;;;;;;;6.30;70.29;102450.88;4899676;29;20096;-93
2022/01/16 02:08:45;;;;;;;8.18;4.82;;;;;;;6.31;70.90;102483.84;4904253;29;20514;-92
2022/01/16 02:14:46;;;;;;;6.82;4.20;;;;;;;6.54;70.39;102498.19;4904160;29;20422;-92
2022/01/16 02:33:11;;;;;;;8.13;4.70;;;;;;;6.35;70.56;102498.06;4903694;29;20039;-93
2022/01/16 02:39:09;;;;;;;8.13;4.63;;;;;;;6.50;70.64;102522.00;4903646;29;20061;-93
2022/01/16 02:45:04;;;;;;;7.28;4.40;;;;;;;6.52;70.76;102518.78;4906218;29;20044;-93
2022/01/16 02:50:51;;;;;;;8.30;4.60;;;;;;;6.29;70.66;102474.09;4903686;29;20087;-93
2022/01/16 02:56:39;;;;;;;7.68;4.90;;;;;;;6.31;70.82;102476.06;4903903;29;20091;-93
2022/01/16 03:02:27;;;;;;;8.63;4.82;;;;;;;6.44;70.67;102498.94;4922769;29;20537;-92
2022/01/16 03:08:14;;;;;;;7.38;4.32;;;;;;;6.24;70.16;102460.66;4921850;29;20050;-92
2022/01/16 03:14:03;;;;;;;8.82;4.75;;;;;;;6.30;70.32;102484.59;4920977;29;20071;-94
2022/01/16 03:25:57;;;;;;;8.57;4.43;;;;;;;6.28;70.59;102509.47;4900634;29;20055;-92
2022/01/16 03:31:44;;;;;;;8.13;4.63;;;;;;;6.42;70.56;102535.91;4914348;29;20047;-96
2022/01/16 03:37:32;;;;;;;7.53;4.70;;;;;;;6.43;70.74;102542.91;4919259;29;20099;-91
2022/01/16 03:48:01;;;;;;;7.45;4.18;;;;;;;6.34;70.63;102537.72;4899902;29;20139;-92
2022/01/16 03:53:50;;;;;;;6.65;4.32;;;;;;;6.13;70.53;102517.44;4910538;29;20127;-90
2022/01/16 03:59:37;;;;;;;9.45;4.75;;;;;;;6.00;70.16;102508.41;4918109;29;20488;-90
2022/01/16 04:05:24;;;;;;;6.50;4.30;;;;;;;6.15;70.66;102547.03;4918536;29;20038;-92
2022/01/16 04:11:12;;;;;;;7.60;4.32;;;;;;;6.13;70.59;102561.53;4918543;29;20043;-92
2022/01/16 04:16:59;;;;;;;6.55;4.25;;;;;;;6.11;70.85;102571.75;4918465;29;20066;-94
2022/01/16 04:22:47;;;;;;;6.88;4.38;;;;;;;6.31;70.64;102610.09;4919012;29;20414;-93
2022/01/16 04:28:15;;;;;;;9.15;4.50;;;;;;;6.40;70.57;102615.28;4919637;29;20389;-92
2022/01/16 04:34:02;;;;;;;7.47;4.43;;;;;;;6.29;70.42;102609.91;4918467;29;20047;-92
2022/01/16 04:39:52;;;;;;;7.78;4.57;;;;;;;6.32;70.27;102617.09;4918176;29;20095;-92
2022/01/16 04:50:11;;;;;;;6.28;4.15;;;;;;;6.27;70.27;102624.41;4904053;29;20040;-91
2022/01/16 04:55:58;;;;;;;7.82;4.53;;;;;;;6.23;70.33;102600.59;4933342;29;20042;-92
2022/01/16 05:01:45;;;;;;;10.05;4.78;;;;;;;6.13;70.83;102600.44;4919119;29;20414;-92
2022/01/16 05:07:33;;;;;;;6.45;4.47;;;;;;;6.14;70.60;102623.00;4918240;29;20560;-95
2022/01/16 05:19:14;;;;;;;6.35;4.00;;;;;;;6.21;70.42;102638.44;4917608;29;20043;-94
2022/01/16 05:25:07;;;;;;;6.70;4.53;;;;;;;6.14;70.73;102631.72;4916668;29;20074;-93
2022/01/16 05:30:54;;;;;;;9.25;4.90;;;;;;;6.21;70.54;102625.47;4918318;29;20051;-92
2022/01/16 05:36:42;;;;;;;8.85;4.72;;;;;;;6.22;70.13;102627.28;4916860;29;20311;-93
2022/01/16 05:42:31;;;;;;;9.00;4.97;;;;;;;5.86;70.05;102578.66;4898174;29;20177;-93
2022/01/16 05:53:02;;;;;;;7.80;4.63;;;;;;;6.27;69.80;102642.56;4918726;29;20050;-93
2022/01/16 05:58:31;;;;;;;7.75;4.60;;;;;;;6.06;70.43;102628.34;4925510;29;19918;-94
2022/01/16 06:04:18;;;;;;;6.95;4.50;;;;;;;6.18;69.92;102633.88;4922368;29;20099;-95
2022/01/16 06:10:06;;;;;;;9.30;4.88;;;;;;;6.08;69.65;102631.09;4916933;29;20417;-94
2022/01/16 06:15:53;;;;;;;7.43;4.25;;;;;;;5.79;70.18;102605.66;4917043;29;20096;-94
2022/01/16 06:21:40;;;;;;;9.13;4.40;;;;;;;6.02;69.46;102654.72;4916706;29;20043;-93
2022/01/16 06:27:28;;;;;;;7.05;4.40;;;;;;;6.08;69.52;102668.31;4916614;29;20310;-91
2022/01/16 06:33:15;;;;;;;7.47;4.57;;;;;;;5.97;70.05;102666.31;4915610;29;20083;-95
2022/01/16 06:39:05;;;;;;;8.05;4.57;;;;;;;6.17;69.67;102695.97;4898770;29;20113;-93
2022/01/16 06:44:52;;;;;;;7.13;4.28;;;;;;;6.07;69.84;102691.50;4898194;29;20044;-91
2022/01/16 06:55:09;;;;;;;9.05;4.63;;;;;;;5.89;70.03;102688.81;4932535;29;20047;-90
2022/01/16 07:00:56;;;;;;;8.23;5.03;;;;;;;5.89;70.40;102717.34;4900535;29;20052;-90
2022/01/16 07:06:43;;;;;;;8.13;4.93;;;;;;;5.80;69.68;102686.94;4906592;29;20051;-91
2022/01/16 07:12:30;;;;;;;8.02;4.82;;;;;;;5.90;69.96;102701.03;4921829;29;20793;-91
2022/01/16 07:18:18;;;;;;;8.50;5.10;;;;;;;6.03;70.34;102733.44;4901607;29;20522;-91
2022/01/16 07:24:05;;;;;;;8.40;5.30;;;;;;;6.02;70.36;102760.16;4902213;29;20093;-87
2022/01/16 07:29:53;;;;;;;8.43;4.80;;;;;;;5.87;69.84;102749.06;4918498;29;20418;-92
2022/01/16 07:35:40;;;;;;;8.63;4.75;;;;;;;5.72;70.29;102722.44;4919595;29;20035;-95
2022/01/16 07:41:28;;;;;;;7.95;5.03;;;;;;;6.03;70.18;102770.69;4911802;29;20095;-89
2022/01/16 07:47:15;;;;;;;8.50;4.85;;;;;;;5.90;70.11;102757.13;4919348;29;20060;-92
2022/01/16 07:57:30;;;;;;;7.75;4.88;;;;;;;5.98;69.88;102761.50;4916802;29;20689;-90
2022/01/16 08:03:18;;;;;;;8.32;5.10;;;;;;;5.93;70.75;102783.41;4916937;29;20296;-93
2022/01/16 08:09:05;;;;;;;8.77;5.10;;;;;;;5.78;71.52;102786.97;4901944;29;20284;-93
2022/01/16 08:14:53;;;;;;;8.82;5.32;;;;;;;5.79;70.47;102736.97;4918540;29;20047;-90
2022/01/16 08:21:09;;;;;;;8.38;5.07;;;;;;;5.68;71.65;102779.91;4917523;29;20785;-92
2022/01/16 08:26:56;;;;;;;8.40;4.75;;;;;;;5.27;72.22;102735.88;4916918;29;20108;-94
2022/01/16 08:32:44;;;;;;;8.00;4.93;;;;;;;5.65;71.63;102741.63;4913406;29;20068;-95
2022/01/16 08:38:32;;;;;;;8.38;4.90;;;;;;;5.66;71.30;102740.84;4911863;29;20119;-92
2022/01/16 08:44:20;;;;;;;8.93;5.60;;;;;;;5.49;72.52;102795.16;4918718;29;20058;-94
2022/01/16 08:50:09;;;;;;;9.60;5.10;;;;;;;5.45;73.30;102761.91;4902778;29;20075;-92
2022/01/16 09:00:37;;;;;;;10.18;4.97;;;;;;;5.43;73.28;102763.41;4899038;29;20040;-91
2022/01/16 09:06:27;;;;;;;7.38;4.70;;;;;;;5.66;72.23;102773.63;4899938;29;20047;-92
2022/01/16 09:12:14;;;;;;;7.97;4.95;;;;;;;5.62;72.54;102750.75;4898002;29;20423;-91
2022/01/16 09:18:02;;;;;;;7.25;4.90;;;;;;;5.35;73.08;102725.41;4918004;29;20334;-93
2022/01/16 09:23:50;;;;;;;7.68;4.63;;;;;;;5.40;73.26;102735.50;4898585;29;20175;-93
2022/01/16 09:29:37;;;;;;;8.18;5.00;;;;;;;5.62;72.50;102745.56;4917287;29;20123;-93
2022/01/16 09:35:25;;;;;;;7.30;4.32;;;;;;;5.08;73.35;102662.16;4916849;29;22459;-90
2022/01/16 09:40:54;;;;;;;8.82;5.30;;;;;;;5.37;71.97;102659.13;4913690;29;19981;-91
2022/01/16 09:46:42;;;;;;;9.27;5.40;;;;;;;5.72;71.82;102710.41;4911196;29;20475;-90
2022/01/16 09:52:29;;;;;;;10.10;5.03;;;;;;;5.09;72.81;102644.19;4914871;29;20409;-91
2022/01/16 10:02:48;;;;;;;8.15;4.88;;;;;;;5.49;72.01;102673.38;4898020;29;20059;-87
2022/01/16 10:08:37;;;;;;;7.22;4.60;;;;;;;5.79;72.00;102692.88;4897891;29;20161;-95
2022/01/16 10:14:36;;;;;;;7.63;4.97;;;;;;;5.65;72.65;102697.56;4903567;29;20096;-92
2022/01/16 10:20:25;;;;;;;8.35;4.57;;;;;;;5.49;72.17;102658.75;4899081;29;20043;-89
2022/01/16 10:26:23;;;;;;;7.47;4.80;;;;;;;5.60;71.97;102644.31;4901899;29;20044;-94
2022/01/16 10:32:31;;;;;;;8.50;5.05;;;;;;;5.44;73.15;102666.78;4916201;29;20039;-93
2022/01/16 10:38:31;;;;;;;7.78;4.90;;;;;;;5.81;71.95;102665.44;4916035;29;20043;-95
2022/01/16 10:44:37;;;;;;;7.82;4.57;;;;;;;5.56;72.31;102641.25;4932710;29;20050;-96
2022/01/16 10:47:30;;;;;;;6.85;4.40;;;;;;;5.84;72.08;102653.72;4986814;23;20034;-95
2022/01/16 10:53:25;;;;;;;7.65;4.90;;;;;;;5.48;71.95;102589.56;4916521;29;20545;-94
2022/01/16 10:59:23;;;;;;;8.80;4.47;;;;;;;6.01;71.19;102641.59;4919142;29;20064;-95
2022/01/16 11:05:17;;;;;;;10.13;4.38;;;;;;;5.14;72.21;102543.66;4937894;29;20387;-94
2022/01/16 11:11:06;;;;;;;6.70;4.40;;;;;;;5.33;71.43;102537.81;4917064;29;20039;-91
2022/01/16 11:16:58;;;;;;;7.63;4.40;;;;;;;5.15;71.87;102503.16;4917890;29;20438;-92
2022/01/16 11:28:53;;;;;;;6.80;4.05;;;;;;;5.63;70.72;102521.88;4919265;29;20038;-93
2022/01/16 11:34:40;;;;;;;5.97;4.35;;;;;;;5.79;71.16;102599.56;4920694;29;20167;-91
2022/01/16 11:40:39;;;;;;;6.30;4.20;;;;;;;5.42;71.40;102520.59;4919870;29;20107;-90
2022/01/16 11:46:27;;;;;;;7.38;4.00;;;;;;;5.89;70.62;102582.50;4902263;29;20040;-94
2022/01/16 11:52:43;;;;;;;7.20;4.50;;;;;;;6.08;70.97;102602.56;4915120;29;20055;-94
2022/01/16 11:59:21;;;;;;;7.13;4.40;;;;;;;5.56;71.09;102524.63;4918474;29;20043;-93
2022/01/16 12:05:09;;;;;;;7.03;4.22;;;;;;;5.57;71.85;102586.06;4902981;29;20062;-90
2022/01/16 12:10:57;;;;;;;8.43;4.88;;;;;;;5.27;73.37;102575.28;4916681;29;20042;-91
2022/01/16 12:16:45;;;;;;;7.38;4.55;;;;;;;5.37;72.93;102589.19;4911760;29;20059;-93
2022/01/16 12:22:42;;;;;;;7.07;4.38;;;;;;;5.80;72.17;102620.47;4924406;29;20686;-93
2022/01/16 12:28:31;;;;;;;7.65;4.95;;;;;;;5.57;71.64;102565.34;4917300;29;20068;-93
2022/01/16 12:34:41;;;;;;;7.68;4.25;;;;;;;6.17;70.73;102624.25;4930423;29;20131;-92
2022/01/16 12:40:28;;;;;;;6.93;4.22;;;;;;;5.67;71.59;102601.78;4916922;29;20124;-91
2022/01/16 12:46:19;;;;;;;7.15;4.43;;;;;;;5.51;72.60;102594.13;4918015;29;20115;-89
2022/01/16 12:52:07;;;;;;;6.57;4.63;;;;;;;5.56;72.41;102589.41;4913641;29;20048;-90
2022/01/16 12:58:22;;;;;;;6.75;4.32;;;;;;;5.34;72.80;102566.47;4909583;29;20042;-88
2022/01/16 13:04:28;;;;;;;6.50;4.30;;;;;;;5.59;72.89;102616.56;4910394;29;20101;-91
2022/01/16 13:10:16;;;;;;;7.57;4.72;;;;;;;5.40;73.21;102582.66;4921758;29;20078;-90
2022/01/16 13:15:45;;;;;;;7.38;4.70;;;;;;;5.50;72.65;102579.31;4924552;29;19930;-88
2022/01/16 13:21:41;;;;;;;7.35;4.47;;;;;;;5.29;72.74;102553.03;4927818;29;20042;-89
2022/01/16 13:27:31;;;;;;;6.72;4.55;;;;;;;5.87;72.03;102584.03;4936385;29;20042;-89
2022/01/16 13:33:18;;;;;;;7.72;4.47;;;;;;;5.96;70.91;102585.75;4939150;29;20046;-89
2022/01/16 13:39:05;;;;;;;6.53;4.35;;;;;;;6.13;70.44;102585.78;4924212;29;20075;-91
2022/01/16 13:44:53;;;;;;;8.45;4.70;;;;;;;6.04;70.74;102590.97;4919099;29;20119;-90
2022/01/16 13:54:49;;;;;;;7.47;4.68;;;;;;;5.90;71.32;102560.06;4918422;29;20034;-90
2022/01/16 14:00:20;;;;;;;7.15;4.60;;;;;;;5.94;71.30;102582.06;4919985;29;19936;-91
2022/01/16 14:06:07;;;;;;;6.45;4.63;;;;;;;5.55;72.03;102548.72;4918153;29;20043;-89
2022/01/16 14:11:56;;;;;;;9.23;4.88;;;;;;;5.90;71.13;102565.25;4918775;29;20123;-92
2022/01/16 14:18:07;;;;;;;8.02;4.95;;;;;;;5.64;71.93;102547.97;4918650;29;20505;-92
2022/01/16 14:23:54;;;;;;;9.38;5.28;;;;;;;5.69;71.34;102499.19;4899648;29;20088;-91
2022/01/16 14:29:44;;;;;;;10.38;5.72;;;;;;;5.70;71.54;102547.69;4920853;29;20043;-91
2022/01/16 14:35:31;;;;;;;7.93;5.50;;;;;;;5.51;72.06;102534.53;4903798;29;20450;-91
2022/01/16 14:41:19;;;;;;;9.60;5.57;;;;;;;5.82;71.91;102540.22;4904508;29;20040;-90
2022/01/16 14:47:09;;;;;;;9.45;5.45;;;;;;;5.77;71.95;102521.63;4902723;29;20509;-92
2022/01/16 14:57:25;;;;;;;8.43;5.05;;;;;;;5.85;71.08;102525.91;4924030;29;20059;-90
2022/01/16 15:03:12;;;;;;;8.25;5.50;;;;;;;5.55;71.81;102495.22;4925200;29;20080;-89
2022/01/16 15:09:00;;;;;;;9.48;5.63;;;;;;;5.92;71.44;102522.25;4915335;29;20050;-93
2022/01/16 15:14:48;;;;;;;8.45;5.82;;;;;;;5.54;71.36;102445.81;4924275;29;20101;-90
2022/01/16 15:20:37;;;;;;;7.13;4.93;;;;;;;5.94;71.21;102505.16;4920718;29;20046;-94
2022/01/16 15:26:25;;;;;;;8.80;5.65;;;;;;;5.70;71.80;102498.44;4921191;29;20039;-93
2022/01/16 15:31:54;;;;;;;8.95;5.88;;;;;;;5.96;71.13;102497.59;4920821;29;20432;-93
2022/01/16 15:37:48;;;;;;;9.07;6.03;;;;;;;5.66;72.43;102514.44;4912959;29;20040;-92
2022/01/16 15:43:38;;;;;;;10.98;6.10;;;;;;;5.76;72.25;102506.84;4928958;29;20055;-96
2022/01/16 15:49:28;;;;;;;11.18;6.53;;;;;;;5.58;72.35;102481.66;4917600;29;20070;-93
2022/01/16 15:59:45;;;;;;;11.75;7.00;;;;;;;5.23;72.67;102438.44;4915590;29;20071;-90
2022/01/16 16:05:32;;;;;;;12.02;6.55;;;;;;;5.54;73.14;102506.31;4914609;29;20099;-95
2022/01/16 16:11:20;;;;;;;11.25;6.68;;;;;;;5.62;72.70;102518.38;4919083;29;20054;-92
2022/01/16 16:17:07;;;;;;;9.13;6.25;;;;;;;5.72;71.66;102445.09;4919006;29;20043;-92
2022/01/16 16:22:56;;;;;;;11.45;6.70;;;;;;;5.79;71.83;102495.84;4917205;29;20042;-95
2022/01/16 16:28:45;;;;;;;10.38;6.80;;;;;;;5.71;72.57;102502.84;4917750;29;20039;-84
2022/01/16 16:34:14;;;;;;;12.13;7.38;;;;;;;5.73;71.87;102457.25;4937313;29;19990;-91
2022/01/16 16:40:02;;;;;;;12.00;6.80;;;;;;;5.85;72.30;102491.28;4920125;29;20043;-94
2022/01/16 16:45:49;;;;;;;12.25;7.28;;;;;;;6.11;71.03;102479.28;4928237;29;20505;-92
2022/01/16 16:51:37;;;;;;;10.82;7.03;;;;;;;5.90;71.98;102471.91;4922453;29;20047;-92
2022/01/16 17:01:55;;;;;;;13.13;7.22;;;;;;;5.78;72.44;102488.81;4916916;29;20046;-95
2022/01/16 17:07:43;;;;;;;10.30;6.60;;;;;;;5.80;71.83;102456.19;4920628;29;20059;-94
2022/01/16 17:13:30;;;;;;;12.65;7.20;;;;;;;5.69;72.08;102460.31;4916111;29;20040;-93
2022/01/16 17:25:23;;;;;;;11.20;7.03;;;;;;;5.84;71.81;102485.19;4900932;29;20100;-91
2022/01/16 17:31:11;;;;;;;12.27;7.18;;;;;;;6.05;71.15;102483.88;4902763;29;20095;-90
2022/01/16 17:36:59;;;;;;;12.32;7.40;;;;;;;5.90;71.19;102446.00;4924701;29;20076;-90
2022/01/16 17:42:46;;;;;;;15.23;8.27;;;;;;;5.94;70.41;102422.19;4918743;29;20451;-90
2022/01/16 17:48:34;;;;;;;13.02;7.65;;;;;;;5.84;70.68;102417.78;4916860;29;20586;-90
2022/01/16 17:54:21;;;;;;;11.32;7.32;;;;;;;6.20;70.73;102479.28;4918046;29;20101;-90
2022/01/16 18:04:49;;;;;;;10.35;6.93;;;;;;;5.83;71.19;102439.28;4911653;29;20433;-90
2022/01/16 18:10:36;;;;;;;12.65;8.38;;;;;;;6.02;71.05;102465.41;4921232;29;20035;-93
2022/01/16 18:16:24;;;;;;;12.85;7.68;;;;;;;5.87;70.41;102401.63;4906750;29;20051;-91
2022/01/16 18:22:12;;;;;;;13.02;7.90;;;;;;;6.01;71.08;102449.69;4899906;29;20502;-92
2022/01/16 18:28:00;;;;;;;12.32;7.75;;;;;;;6.03;70.71;102464.66;4909155;29;20096;-88
2022/01/16 18:33:48;;;;;;;12.52;7.65;;;;;;;5.84;70.84;102430.75;4912330;29;20087;-89
2022/01/16 18:39:35;;;;;;;12.10;7.40;;;;;;;6.16;70.19;102451.22;4909290;29;20406;-90
2022/01/16 18:45:26;;;;;;;13.23;7.45;;;;;;;6.04;70.84;102469.06;4916084;29;20133;-90
2022/01/16 18:51:14;;;;;;;12.70;7.38;;;;;;;6.18;70.29;102461.72;4913178;29;20050;-94
2022/01/16 18:57:04;;;;;;;13.18;7.82;;;;;;;5.91;70.74;102455.63;4930713;29;20038;-95
2022/01/16 19:07:33;;;;;;;12.93;7.57;;;;;;;5.64;70.94;102402.81;4910000;29;20449;-92
2022/01/16 19:13:21;;;;;;;13.38;7.38;;;;;;;6.14;70.49;102472.56;4915814;29;20039;-94
2022/01/16 19:19:09;;;;;;;12.20;7.38;;;;;;;6.10;70.75;102469.66;4924942;29;20042;-93
2022/01/16 19:24:56;;;;;;;14.13;8.18;;;;;;;5.54;70.51;102362.88;5035067;23;20364;-93
2022/01/16 19:30:43;;;;;;;11.65;7.35;;;;;;;5.79;70.99;102421.59;4956596;28;20498;-94
2022/01/16 19:36:32;;;;;;;11.23;7.35;;;;;;;6.14;70.24;102450.16;4948909;29;20046;-90
2022/01/16 19:42:23;;;;;;;13.15;7.70;;;;;;;5.94;70.45;102416.09;5210806;23;20055;-92
2022/01/16 19:48:12;;;;;;;10.95;6.85;;;;;;;5.94;70.22;102424.78;4912931;29;20043;-90
2022/01/16 19:53:59;;;;;;;12.18;7.68;;;;;;;6.07;70.69;102455.47;4933271;29;20067;-89
2022/01/16 19:59:46;;;;;;;12.02;7.63;;;;;;;6.00;70.38;102429.72;4916386;29;20295;-91
2022/01/16 20:05:34;;;;;;;12.90;7.68;;;;;;;6.10;70.08;102435.06;4914116;29;20549;-91
2022/01/16 20:11:28;;;;;;;12.95;8.07;;;;;;;6.00;70.04;102430.63;4920467;29;20271;-90
2022/01/16 20:17:16;;;;;;;11.55;7.53;;;;;;;5.86;70.12;102390.34;4913918;29;20047;-90
2022/01/16 20:23:05;;;;;;;12.38;7.93;;;;;;;6.06;70.15;102419.94;4912627;29;20379;-90
2022/01/16 20:28:52;;;;;;;11.93;7.85;;;;;;;5.95;70.34;102385.19;4917211;29;20083;-94
2022/01/16 20:34:43;;;;;;;12.70;7.50;;;;;;;6.11;70.66;102416.13;4918868;29;20027;-91
2022/01/16 20:43:07;;;;;;;12.00;7.47;;;;;;;5.16;70.47;102256.38;4922447;29;20034;-94
2022/01/16 20:48:55;;;;;;;12.70;7.70;;;;;;;6.05;69.92;102379.19;4921850;29;20064;-92
2022/01/16 20:54:42;;;;;;;11.98;7.00;;;;;;;5.82;70.19;102369.13;4924584;29;20178;-94
2022/01/16 21:00:30;;;;;;;12.40;7.65;;;;;;;5.82;70.02;102344.13;4920623;29;20042;-93
2022/01/16 21:06:18;;;;;;;11.20;7.18;;;;;;;6.13;69.53;102385.16;4919111;29;20046;-90
2022/01/16 21:12:08;;;;;;;13.80;7.90;;;;;;;6.10;69.97;102381.50;4917958;29;20115;-91
2022/01/16 21:17:56;;;;;;;14.25;8.60;;;;;;;6.03;70.23;102367.75;4916608;29;20479;-85
2022/01/16 21:23:26;;;;;;;12.13;8.02;;;;;;;5.81;69.95;102343.97;4916615;29;19922;-88
2022/01/16 21:29:13;;;;;;;12.77;8.13;;;;;;;6.02;69.61;102365.94;4916559;29;20104;-90
2022/01/16 21:35:01;;;;;;;13.52;7.90;;;;;;;5.94;69.95;102349.59;4918171;29;20055;-88
2022/01/16 21:45:22;;;;;;;14.00;7.82;;;;;;;5.96;70.35;102386.09;4894214;29;20093;-88
2022/01/16 21:51:10;;;;;;;11.38;7.68;;;;;;;6.03;69.97;102391.09;4878751;29;20423;-91
2022/01/16 21:56:58;;;;;;;12.07;7.97;;;;;;;6.03;70.20;102379.06;4890246;29;20101;-92
2022/01/16 22:03:27;;;;;;;;;;;;;;;5.96;69.72;102379.22;4928331;29;20663;-89
2022/01/16 22:05:56;;;;;;;12.82;7.28;;;;;;;5.62;70.13;102317.94;4905778;29;19922;-90
2022/01/16 22:08:24;;;;;;;14.32;8.10;;;;;;;5.85;69.90;102347.00;4895055;29;20060;-88
2022/01/16 22:10:52;;;;;;;13.60;7.93;;;;;;;5.94;70.15;102365.16;4895982;29;20036;-88
2022/01/16 22:13:23;;;;;;;11.85;7.55;;;;;;;5.79;69.89;102333.44;4904154;29;20059;-88
2022/01/16 22:15:52;;;;;;;12.70;7.80;;;;;;;5.98;69.95;102361.22;4917181;29;20102;-91
2022/01/16 22:18:25;;;;;;;12.13;7.68;;;;;;;5.90;69.55;102344.88;4899461;29;20048;-90
2022/01/16 22:20:53;;;;;;;12.32;7.82;;;;;;;5.96;70.05;102352.38;4922234;29;20046;-89
2022/01/16 22:23:23;;;;;;;13.88;7.78;;;;;;;5.94;69.89;102354.78;4907829;29;20531;-88
2022/01/16 22:25:49;;;;;;;13.00;7.63;;;;;;;6.05;69.36;102349.03;4921890;29;20039;-86
2022/01/16 22:28:16;;;;;;;13.05;7.75;;;;;;;5.88;69.78;102320.47;4919874;29;20041;-88
2022/01/16 22:30:41;;;;;;;13.73;7.95;;;;;;;5.89;69.58;102327.50;4913571;29;20040;-85
2022/01/16 22:33:07;;;;;;;11.65;7.90;;;;;;;6.06;69.81;102347.34;4894985;29;20080;-85
2022/01/16 22:35:41;;;;;;;13.52;8.38;;;;;;;5.54;69.49;102260.16;4938525;29;20042;-88
2022/01/16 22:38:06;;;;;;;11.93;7.82;;;;;;;5.50;69.67;102269.31;4905956;29;20043;-89
2022/01/16 22:40:34;;;;;;;11.55;7.60;;;;;;;5.66;69.80;102288.97;4906353;29;20031;-88
2022/01/16 22:43:01;;;;;;;13.57;7.90;;;;;;;5.39;69.79;102250.88;4922038;29;20042;-89
2022/01/16 22:45:27;;;;;;;12.73;7.82;;;;;;;5.51;70.67;102268.53;4896160;29;20486;-90
2022/01/16 22:48:04;;;;;;;12.63;7.63;;;;;;;5.83;70.08;102314.84;4904415;29;20122;-89
2022/01/16 22:50:39;;;;;;;12.73;7.53;;;;;;;5.46;70.14;102250.69;4887090;29;20520;-89
2022/01/16 22:53:06;;;;;;;11.95;7.43;;;;;;;5.68;69.83;102253.75;4886794;29;20040;-89
2022/01/16 22:55:33;;;;;;;11.57;7.82;;;;;;;5.90;70.30;102296.53;4886636;29;20155;-88
2022/01/16 22:58:03;;;;;;;13.10;7.70;;;;;;;5.82;69.78;102255.06;4886661;29;20032;-89
2022/01/16 23:00:35;;;;;;;13.68;8.05;;;;;;;5.92;69.79;102278.53;4902596;29;20040;-89
2022/01/16 23:03:02;;;;;;;12.35;7.72;;;;;;;5.92;69.70;102275.94;4886720;29;20135;-88
2022/01/16 23:05:32;;;;;;;12.77;8.02;;;;;;;5.85;69.87;102263.16;4902046;29;20032;-88
2022/01/16 23:07:58;;;;;;;12.50;7.70;;;;;;;5.80;70.09;102257.53;4886398;29;20038;-89
2022/01/16 23:10:25;;;;;;;11.07;7.40;;;;;;;5.74;70.16;102250.84;4902225;29;20111;-89
2022/01/16 23:12:54;;;;;;;13.18;7.68;;;;;;;5.90;69.44;102269.69;4908494;29;20032;-88
2022/01/16 23:15:26;;;;;;;14.85;7.65;;;;;;;5.87;69.59;102259.94;4937835;29;20028;-90
2022/01/16 23:17:56;;;;;;;13.35;7.30;;;;;;;5.83;69.66;102263.00;4894525;29;20413;-89
2022/01/16 23:20:28;;;;;;;12.65;7.55;;;;;;;5.68;69.78;102223.53;4886446;29;20043;-89
2022/01/16 23:22:56;;;;;;;12.40;7.45;;;;;;;5.56;69.79;102196.44;4899311;29;20124;-88
2022/01/16 23:25:25;;;;;;;11.25;7.13;;;;;;;5.69;70.39;102242.59;4887859;29;20057;-89
2022/01/16 23:27:51;;;;;;;12.32;7.68;;;;;;;5.53;70.18;102203.03;4921024;29;20042;-90
2022/01/16 23:30:22;;;;;;;13.05;7.65;;;;;;;5.85;70.09;102250.19;4905248;29;20039;-89
2022/01/16 23:33:00;;;;;;;10.57;7.15;;;;;;;5.54;69.97;102205.72;4937011;29;20031;-90
2022/01/16 23:35:36;;;;;;;10.93;7.13;;;;;;;5.65;70.31;102225.84;4905094;29;20027;-89
2022/01/16 23:38:03;;;;;;;12.10;7.55;;;;;;;5.65;69.60;102217.13;4921218;29;20032;-89
2022/01/16 23:40:37;;;;;;;11.50;7.00;;;;;;;5.58;69.66;102196.59;4905160;29;20031;-89
2022/01/16 23:43:03;;;;;;;13.70;7.45;;;;;;;5.56;70.28;102201.63;4905466;29;20092;-89
2022/01/16 23:45:30;;;;;;;11.73;6.97;;;;;;;5.57;69.94;102210.31;4904143;29;20035;-89
2022/01/16 23:48:03;;;;;;;11.65;7.05;;;;;;;5.84;69.67;102244.09;4894091;29;20134;-90
2022/01/16 23:50:38;;;;;;;13.02;7.68;;;;;;;5.83;70.31;102239.66;4897406;29;20104;-90
2022/01/16 23:53:13;;;;;;;10.77;6.82;;;;;;;5.56;70.32;102208.47;4920035;29;20067;-91
2022/01/16 23:55:39;;;;;;;12.25;7.20;;;;;;;5.77;70.31;102236.47;4901104;29;20039;-89
2022/01/16 23:58:08;;;;;;;12.90;7.63;;;;;;;5.54;70.21;102212.59;4920460;29;20035;-91
